sensor_id;sensor_type;location;lat;lon;timestamp;P1;durP1;ratioP1;P2;durP2;ratioP2
21213;SDS011;10764;50.850;2.904;2022-07-29T00:02:27;514.42;;;470.38;;
21213;SDS011;10764;50.850;2.904;2022-07-29T00:04:54;488.58;;;446.77;;
21213;SDS011;10764;50.850;2.904;2022-07-29T00:07:21;509.77;;;466.05;;
21213;SDS011;10764;50.850;2.904;2022-07-29T00:09:48;512.25;;;468.40;;
21213;SDS011;10764;50.850;2.904;2022-07-29T00:12:21;496.30;;;453.77;;
21213;SDS011;10764;50.850;2.904;2022-07-29T00:14:55;473.02;;;432.10;;
21213;SDS011;10764;50.850;2.904;2022-07-29T00:17:25;490.02;;;447.80;;
21213;SDS011;10764;50.850;2.904;2022-07-29T00:19:52;481.70;;;440.33;;
21213;SDS011;10764;50.850;2.904;2022-07-29T00:22:19;537.60;;;491.47;;
21213;SDS011;10764;50.850;2.904;2022-07-29T00:24:47;525.05;;;479.98;;
21213;SDS011;10764;50.850;2.904;2022-07-29T00:27:15;478.85;;;437.67;;
21213;SDS011;10764;50.850;2.904;2022-07-29T00:29:42;471.42;;;430.95;;
21213;SDS011;10764;50.850;2.904;2022-07-29T00:32:08;428.08;;;391.40;;
21213;SDS011;10764;50.850;2.904;2022-07-29T00:34:35;505.60;;;462.38;;
21213;SDS011;10764;50.850;2.904;2022-07-29T00:37:21;517.25;;;472.95;;
21213;SDS011;10764;50.850;2.904;2022-07-29T00:39:48;520.00;;;475.52;;
21213;SDS011;10764;50.850;2.904;2022-07-29T00:42:14;509.75;;;466.08;;
21213;SDS011;10764;50.850;2.904;2022-07-29T00:44:42;499.65;;;456.83;;
21213;SDS011;10764;50.850;2.904;2022-07-29T00:47:10;514.70;;;470.45;;
21213;SDS011;10764;50.850;2.904;2022-07-29T00:49:38;534.35;;;488.75;;
21213;SDS011;10764;50.850;2.904;2022-07-29T00:52:06;596.78;;;545.50;;
21213;SDS011;10764;50.850;2.904;2022-07-29T00:54:34;608.40;;;556.15;;
21213;SDS011;10764;50.850;2.904;2022-07-29T00:57:10;602.78;;;551.13;;
21213;SDS011;10764;50.850;2.904;2022-07-29T00:59:37;560.53;;;512.58;;
21213;SDS011;10764;50.850;2.904;2022-07-29T01:02:04;588.92;;;538.58;;
21213;SDS011;10764;50.850;2.904;2022-07-29T01:04:31;586.50;;;536.05;;
21213;SDS011;10764;50.850;2.904;2022-07-29T01:07:00;559.40;;;511.38;;
21213;SDS011;10764;50.850;2.904;2022-07-29T01:09:28;491.83;;;449.73;;
21213;SDS011;10764;50.850;2.904;2022-07-29T01:12:16;490.63;;;448.77;;
21213;SDS011;10764;50.850;2.904;2022-07-29T01:14:45;495.23;;;452.75;;
21213;SDS011;10764;50.850;2.904;2022-07-29T01:17:14;520.47;;;476.08;;
21213;SDS011;10764;50.850;2.904;2022-07-29T01:20:03;600.78;;;549.35;;
21213;SDS011;10764;50.850;2.904;2022-07-29T01:25:48;611.03;;;558.67;;
21213;SDS011;10764;50.850;2.904;2022-07-29T01:31:06;545.47;;;498.70;;
21213;SDS011;10764;50.850;2.904;2022-07-29T01:33:43;648.83;;;593.38;;
21213;SDS011;10764;50.850;2.904;2022-07-29T01:36:30;566.35;;;517.72;;
21213;SDS011;10764;50.850;2.904;2022-07-29T01:39:10;576.10;;;526.72;;
21213;SDS011;10764;50.850;2.904;2022-07-29T01:41:48;592.50;;;541.97;;
21213;SDS011;10764;50.850;2.904;2022-07-29T01:44:35;636.65;;;581.95;;
21213;SDS011;10764;50.850;2.904;2022-07-29T01:47:10;662.83;;;606.37;;
21213;SDS011;10764;50.850;2.904;2022-07-29T01:49:43;646.22;;;591.05;;
21213;SDS011;10764;50.850;2.904;2022-07-29T01:52:38;650.75;;;595.30;;
21213;SDS011;10764;50.850;2.904;2022-07-29T01:55:11;673.67;;;616.55;;
21213;SDS011;10764;50.850;2.904;2022-07-29T01:57:43;672.38;;;615.38;;
21213;SDS011;10764;50.850;2.904;2022-07-29T02:00:12;646.58;;;591.38;;
21213;SDS011;10764;50.850;2.904;2022-07-29T02:02:41;677.27;;;620.13;;
21213;SDS011;10764;50.850;2.904;2022-07-29T02:05:10;640.33;;;585.67;;
21213;SDS011;10764;50.850;2.904;2022-07-29T02:07:40;647.70;;;592.50;;
21213;SDS011;10764;50.850;2.904;2022-07-29T02:10:09;657.38;;;601.47;;
21213;SDS011;10764;50.850;2.904;2022-07-29T02:12:38;685.15;;;627.45;;
21213;SDS011;10764;50.850;2.904;2022-07-29T02:15:06;708.03;;;648.70;;
21213;SDS011;10764;50.850;2.904;2022-07-29T02:17:49;681.42;;;623.97;;
21213;SDS011;10764;50.850;2.904;2022-07-29T02:20:20;754.70;;;692.28;;
21213;SDS011;10764;50.850;2.904;2022-07-29T02:22:49;725.55;;;664.85;;
21213;SDS011;10764;50.850;2.904;2022-07-29T02:25:18;728.15;;;667.28;;
21213;SDS011;10764;50.850;2.904;2022-07-29T02:27:46;714.50;;;654.58;;
21213;SDS011;10764;50.850;2.904;2022-07-29T02:30:14;732.88;;;671.72;;
21213;SDS011;10764;50.850;2.904;2022-07-29T02:32:41;723.35;;;662.90;;
21213;SDS011;10764;50.850;2.904;2022-07-29T02:35:13;740.88;;;679.25;;
21213;SDS011;10764;50.850;2.904;2022-07-29T02:37:41;741.90;;;680.27;;
21213;SDS011;10764;50.850;2.904;2022-07-29T02:40:11;722.38;;;661.92;;
21213;SDS011;10764;50.850;2.904;2022-07-29T02:42:41;661.72;;;605.67;;
21213;SDS011;10764;50.850;2.904;2022-07-29T02:45:10;670.15;;;613.50;;
21213;SDS011;10764;50.850;2.904;2022-07-29T02:47:40;704.58;;;645.30;;
21213;SDS011;10764;50.850;2.904;2022-07-29T02:50:11;611.00;;;559.00;;
21213;SDS011;10764;50.850;2.904;2022-07-29T02:52:43;727.35;;;666.70;;
21213;SDS011;10764;50.850;2.904;2022-07-29T02:55:19;711.35;;;652.05;;
21213;SDS011;10764;50.850;2.904;2022-07-29T03:01:05;674.17;;;617.23;;
21213;SDS011;10764;50.850;2.904;2022-07-29T03:03:47;686.83;;;628.97;;
21213;SDS011;10764;50.850;2.904;2022-07-29T03:06:16;694.33;;;636.08;;
21213;SDS011;10764;50.850;2.904;2022-07-29T03:09:04;688.73;;;630.83;;
21213;SDS011;10764;50.850;2.904;2022-07-29T03:11:38;722.97;;;662.78;;
21213;SDS011;10764;50.850;2.904;2022-07-29T03:14:16;673.22;;;616.58;;
21213;SDS011;10764;50.850;2.904;2022-07-29T03:16:46;684.58;;;627.03;;
21213;SDS011;10764;50.850;2.904;2022-07-29T03:19:14;693.28;;;635.17;;
21213;SDS011;10764;50.850;2.904;2022-07-29T03:21:41;732.40;;;671.60;;
21213;SDS011;10764;50.850;2.904;2022-07-29T03:24:08;688.60;;;630.60;;
21213;SDS011;10764;50.850;2.904;2022-07-29T03:26:36;644.72;;;590.08;;
21213;SDS011;10764;50.850;2.904;2022-07-29T03:29:03;698.05;;;639.67;;
21213;SDS011;10764;50.850;2.904;2022-07-29T03:31:31;642.05;;;587.92;;
21213;SDS011;10764;50.850;2.904;2022-07-29T03:33:58;635.30;;;581.10;;
21213;SDS011;10764;50.850;2.904;2022-07-29T03:36:25;616.80;;;564.38;;
21213;SDS011;10764;50.850;2.904;2022-07-29T03:38:52;630.83;;;577.42;;
21213;SDS011;10764;50.850;2.904;2022-07-29T03:41:20;628.90;;;575.50;;
21213;SDS011;10764;50.850;2.904;2022-07-29T03:43:48;674.03;;;617.30;;
21213;SDS011;10764;50.850;2.904;2022-07-29T03:46:17;644.90;;;590.03;;
21213;SDS011;10764;50.850;2.904;2022-07-29T03:48:50;735.72;;;674.67;;
21213;SDS011;10764;50.850;2.904;2022-07-29T03:51:19;696.95;;;638.63;;
21213;SDS011;10764;50.850;2.904;2022-07-29T03:53:59;721.35;;;661.35;;
21213;SDS011;10764;50.850;2.904;2022-07-29T03:56:37;710.45;;;651.35;;
21213;SDS011;10764;50.850;2.904;2022-07-29T03:59:06;678.42;;;621.35;;
21213;SDS011;10764;50.850;2.904;2022-07-29T04:01:34;694.88;;;636.75;;
21213;SDS011;10764;50.850;2.904;2022-07-29T04:04:02;706.40;;;647.30;;
21213;SDS011;10764;50.850;2.904;2022-07-29T04:06:37;673.88;;;617.03;;
21213;SDS011;10764;50.850;2.904;2022-07-29T04:09:04;669.25;;;612.90;;
21213;SDS011;10764;50.850;2.904;2022-07-29T04:11:35;564.50;;;516.17;;
21213;SDS011;10764;50.850;2.904;2022-07-29T04:14:23;565.38;;;516.95;;
21213;SDS011;10764;50.850;2.904;2022-07-29T04:16:50;551.88;;;504.70;;
21213;SDS011;10764;50.850;2.904;2022-07-29T04:19:17;585.38;;;535.30;;
21213;SDS011;10764;50.850;2.904;2022-07-29T04:21:44;541.83;;;495.67;;
21213;SDS011;10764;50.850;2.904;2022-07-29T04:24:11;561.97;;;513.75;;
21213;SDS011;10764;50.850;2.904;2022-07-29T04:26:39;578.95;;;529.83;;
21213;SDS011;10764;50.850;2.904;2022-07-29T04:29:06;587.20;;;536.88;;
21213;SDS011;10764;50.850;2.904;2022-07-29T04:31:33;672.67;;;615.95;;
21213;SDS011;10764;50.850;2.904;2022-07-29T04:34:00;682.70;;;624.92;;
21213;SDS011;10764;50.850;2.904;2022-07-29T04:36:26;609.80;;;557.88;;
21213;SDS011;10764;50.850;2.904;2022-07-29T04:38:55;678.92;;;621.30;;
21213;SDS011;10764;50.850;2.904;2022-07-29T04:41:22;683.47;;;626.17;;
21213;SDS011;10764;50.850;2.904;2022-07-29T04:43:59;667.60;;;610.80;;
21213;SDS011;10764;50.850;2.904;2022-07-29T04:46:32;690.97;;;632.72;;
21213;SDS011;10764;50.850;2.904;2022-07-29T04:48:59;672.10;;;615.13;;
21213;SDS011;10764;50.850;2.904;2022-07-29T04:51:26;677.78;;;620.65;;
21213;SDS011;10764;50.850;2.904;2022-07-29T04:53:53;664.55;;;608.05;;
21213;SDS011;10764;50.850;2.904;2022-07-29T04:56:20;686.47;;;628.40;;
21213;SDS011;10764;50.850;2.904;2022-07-29T04:58:47;660.33;;;604.37;;
21213;SDS011;10764;50.850;2.904;2022-07-29T05:01:14;698.75;;;640.33;;
21213;SDS011;10764;50.850;2.904;2022-07-29T05:03:41;709.67;;;650.17;;
21213;SDS011;10764;50.850;2.904;2022-07-29T05:06:08;692.35;;;634.17;;
21213;SDS011;10764;50.850;2.904;2022-07-29T05:08:34;704.92;;;645.90;;
21213;SDS011;10764;50.850;2.904;2022-07-29T05:11:01;721.75;;;661.25;;
21213;SDS011;10764;50.850;2.904;2022-07-29T05:13:38;721.92;;;661.92;;
21213;SDS011;10764;50.850;2.904;2022-07-29T05:16:12;676.97;;;620.03;;
21213;SDS011;10764;50.850;2.904;2022-07-29T05:18:40;686.40;;;628.83;;
21213;SDS011;10764;50.850;2.904;2022-07-29T05:21:08;673.33;;;616.00;;
21213;SDS011;10764;50.850;2.904;2022-07-29T05:23:35;709.03;;;649.75;;
21213;SDS011;10764;50.850;2.904;2022-07-29T05:26:02;687.50;;;629.75;;
21213;SDS011;10764;50.850;2.904;2022-07-29T05:28:32;687.97;;;630.00;;
21213;SDS011;10764;50.850;2.904;2022-07-29T05:31:00;675.53;;;618.80;;
21213;SDS011;10764;50.850;2.904;2022-07-29T05:33:27;702.58;;;644.08;;
21213;SDS011;10764;50.850;2.904;2022-07-29T05:36:03;689.22;;;631.70;;
21213;SDS011;10764;50.850;2.904;2022-07-29T05:38:33;717.72;;;657.90;;
21213;SDS011;10764;50.850;2.904;2022-07-29T05:41:00;737.47;;;676.38;;
21213;SDS011;10764;50.850;2.904;2022-07-29T05:43:28;686.60;;;628.55;;
21213;SDS011;10764;50.850;2.904;2022-07-29T05:45:55;713.50;;;653.72;;
21213;SDS011;10764;50.850;2.904;2022-07-29T05:48:22;686.93;;;628.93;;
21213;SDS011;10764;50.850;2.904;2022-07-29T05:50:49;713.05;;;653.63;;
21213;SDS011;10764;50.850;2.904;2022-07-29T05:53:16;707.70;;;648.40;;
21213;SDS011;10764;50.850;2.904;2022-07-29T05:55:46;681.17;;;623.80;;
21213;SDS011;10764;50.850;2.904;2022-07-29T05:58:13;682.10;;;624.58;;
21213;SDS011;10764;50.850;2.904;2022-07-29T06:00:40;707.70;;;648.15;;
21213;SDS011;10764;50.850;2.904;2022-07-29T06:03:07;704.15;;;644.92;;
21213;SDS011;10764;50.850;2.904;2022-07-29T06:05:34;715.37;;;655.47;;
21213;SDS011;10764;50.850;2.904;2022-07-29T06:08:02;650.67;;;595.47;;
21213;SDS011;10764;50.850;2.904;2022-07-29T06:10:34;709.38;;;649.88;;
21213;SDS011;10764;50.850;2.904;2022-07-29T06:13:01;689.25;;;631.25;;
21213;SDS011;10764;50.850;2.904;2022-07-29T06:15:28;717.47;;;657.50;;
21213;SDS011;10764;50.850;2.904;2022-07-29T06:17:55;689.75;;;631.70;;
21213;SDS011;10764;50.850;2.904;2022-07-29T06:20:29;656.20;;;600.03;;
21213;SDS011;10764;50.850;2.904;2022-07-29T06:22:58;697.72;;;639.13;;
21213;SDS011;10764;50.850;2.904;2022-07-29T06:25:25;727.67;;;667.10;;
21213;SDS011;10764;50.850;2.904;2022-07-29T06:27:55;715.22;;;655.30;;
21213;SDS011;10764;50.850;2.904;2022-07-29T06:30:22;723.55;;;663.30;;
21213;SDS011;10764;50.850;2.904;2022-07-29T06:32:49;723.80;;;663.55;;
21213;SDS011;10764;50.850;2.904;2022-07-29T06:35:17;721.33;;;661.03;;
21213;SDS011;10764;50.850;2.904;2022-07-29T06:38:04;634.00;;;579.90;;
21213;SDS011;10764;50.850;2.904;2022-07-29T06:40:51;515.35;;;471.27;;
21213;SDS011;10764;50.850;2.904;2022-07-29T06:43:29;568.80;;;520.20;;
21213;SDS011;10764;50.850;2.904;2022-07-29T06:46:07;574.38;;;525.08;;
21213;SDS011;10764;50.850;2.904;2022-07-29T06:48:35;579.92;;;530.53;;
21213;SDS011;10764;50.850;2.904;2022-07-29T06:51:03;554.10;;;506.70;;
21213;SDS011;10764;50.850;2.904;2022-07-29T06:53:31;489.40;;;447.65;;
21213;SDS011;10764;50.850;2.904;2022-07-29T06:55:59;511.40;;;467.85;;
21213;SDS011;10764;50.850;2.904;2022-07-29T06:58:28;536.30;;;490.23;;
21213;SDS011;10764;50.850;2.904;2022-07-29T07:00:56;543.47;;;496.92;;
21213;SDS011;10764;50.850;2.904;2022-07-29T07:03:27;527.47;;;482.88;;
21213;SDS011;10764;50.850;2.904;2022-07-29T07:05:54;344.77;;;315.23;;
21213;SDS011;10764;50.850;2.904;2022-07-29T07:08:21;389.65;;;356.27;;
21213;SDS011;10764;50.850;2.904;2022-07-29T07:10:50;403.00;;;368.50;;
21213;SDS011;10764;50.850;2.904;2022-07-29T07:13:19;427.40;;;389.88;;
21213;SDS011;10764;50.850;2.904;2022-07-29T07:15:46;432.58;;;395.17;;
21213;SDS011;10764;50.850;2.904;2022-07-29T07:18:17;415.02;;;377.40;;
21213;SDS011;10764;50.850;2.904;2022-07-29T07:20:44;397.60;;;363.02;;
21213;SDS011;10764;50.850;2.904;2022-07-29T07:23:12;429.75;;;392.80;;
21213;SDS011;10764;50.850;2.904;2022-07-29T07:25:39;415.45;;;379.65;;
21213;SDS011;10764;50.850;2.904;2022-07-29T07:28:06;444.52;;;405.38;;
21213;SDS011;10764;50.850;2.904;2022-07-29T07:30:32;431.10;;;393.90;;
21213;SDS011;10764;50.850;2.904;2022-07-29T07:33:00;504.13;;;460.73;;
21213;SDS011;10764;50.850;2.904;2022-07-29T07:35:27;462.73;;;422.73;;
21213;SDS011;10764;50.850;2.904;2022-07-29T07:37:55;498.93;;;456.27;;
21213;SDS011;10764;50.850;2.904;2022-07-29T07:40:22;503.48;;;460.25;;
21213;SDS011;10764;50.850;2.904;2022-07-29T07:42:49;494.77;;;452.07;;
21213;SDS011;10764;50.850;2.904;2022-07-29T07:45:16;476.98;;;435.85;;
21213;SDS011;10764;50.850;2.904;2022-07-29T07:47:43;510.50;;;466.73;;
21213;SDS011;10764;50.850;2.904;2022-07-29T07:50:11;417.52;;;381.63;;
21213;SDS011;10764;50.850;2.904;2022-07-29T07:52:48;504.02;;;460.50;;
21213;SDS011;10764;50.850;2.904;2022-07-29T07:55:16;485.10;;;443.13;;
21213;SDS011;10764;50.850;2.904;2022-07-29T07:57:43;453.67;;;414.38;;
21213;SDS011;10764;50.850;2.904;2022-07-29T08:00:12;497.75;;;455.38;;
21213;SDS011;10764;50.850;2.904;2022-07-29T08:02:40;470.27;;;430.20;;
21213;SDS011;10764;50.850;2.904;2022-07-29T08:05:09;488.33;;;446.77;;
21213;SDS011;10764;50.850;2.904;2022-07-29T08:07:38;487.73;;;446.20;;
21213;SDS011;10764;50.850;2.904;2022-07-29T08:10:05;512.28;;;468.58;;
21213;SDS011;10764;50.850;2.904;2022-07-29T08:12:32;493.17;;;451.25;;
21213;SDS011;10764;50.850;2.904;2022-07-29T08:14:59;480.02;;;439.40;;
21213;SDS011;10764;50.850;2.904;2022-07-29T08:17:26;462.83;;;423.23;;
21213;SDS011;10764;50.850;2.904;2022-07-29T08:19:53;483.00;;;441.95;;
21213;SDS011;10764;50.850;2.904;2022-07-29T08:22:20;370.08;;;338.45;;
21213;SDS011;10764;50.850;2.904;2022-07-29T08:24:47;359.45;;;328.65;;
21213;SDS011;10764;50.850;2.904;2022-07-29T08:27:20;388.17;;;355.02;;
21213;SDS011;10764;50.850;2.904;2022-07-29T08:30:07;487.70;;;446.05;;
21213;SDS011;10764;50.850;2.904;2022-07-29T08:32:36;497.17;;;454.83;;
21213;SDS011;10764;50.850;2.904;2022-07-29T08:35:19;469.38;;;429.50;;
21213;SDS011;10764;50.850;2.904;2022-07-29T08:37:46;487.67;;;445.85;;
21213;SDS011;10764;50.850;2.904;2022-07-29T08:40:13;479.70;;;438.83;;
21213;SDS011;10764;50.850;2.904;2022-07-29T08:42:40;481.10;;;439.90;;
21213;SDS011;10764;50.850;2.904;2022-07-29T08:45:08;433.58;;;396.17;;
21213;SDS011;10764;50.850;2.904;2022-07-29T08:47:35;482.58;;;441.08;;
21213;SDS011;10764;50.850;2.904;2022-07-29T08:50:09;467.38;;;427.13;;
21213;SDS011;10764;50.850;2.904;2022-07-29T08:52:38;444.13;;;405.63;;
21213;SDS011;10764;50.850;2.904;2022-07-29T08:55:06;454.30;;;415.02;;
21213;SDS011;10764;50.850;2.904;2022-07-29T08:57:35;474.20;;;433.38;;
21213;SDS011;10764;50.850;2.904;2022-07-29T09:00:17;488.80;;;446.55;;
21213;SDS011;10764;50.850;2.904;2022-07-29T09:02:45;512.63;;;468.77;;
21213;SDS011;10764;50.850;2.904;2022-07-29T09:05:17;504.27;;;460.87;;
21213;SDS011;10764;50.850;2.904;2022-07-29T09:07:45;505.00;;;461.40;;
21213;SDS011;10764;50.850;2.904;2022-07-29T09:10:14;512.42;;;468.25;;
21213;SDS011;10764;50.850;2.904;2022-07-29T09:12:41;518.17;;;473.33;;
21213;SDS011;10764;50.850;2.904;2022-07-29T09:15:08;497.42;;;454.42;;
21213;SDS011;10764;50.850;2.904;2022-07-29T09:20:12;487.38;;;445.45;;
21213;SDS011;10764;50.850;2.904;2022-07-29T09:22:41;460.48;;;420.58;;
21213;SDS011;10764;50.850;2.904;2022-07-29T09:25:08;433.67;;;396.27;;
21213;SDS011;10764;50.850;2.904;2022-07-29T09:27:37;425.73;;;388.90;;
21213;SDS011;10764;50.850;2.904;2022-07-29T09:30:05;437.25;;;399.65;;
21213;SDS011;10764;50.850;2.904;2022-07-29T09:32:55;503.98;;;460.40;;
21213;SDS011;10764;50.850;2.904;2022-07-29T09:35:25;501.15;;;457.70;;
21213;SDS011;10764;50.850;2.904;2022-07-29T09:37:54;499.40;;;456.35;;
21213;SDS011;10764;50.850;2.904;2022-07-29T09:40:22;508.55;;;464.67;;
21213;SDS011;10764;50.850;2.904;2022-07-29T09:42:50;496.88;;;454.08;;
21213;SDS011;10764;50.850;2.904;2022-07-29T09:45:31;465.58;;;425.55;;
21213;SDS011;10764;50.850;2.904;2022-07-29T09:48:00;469.85;;;429.52;;
21213;SDS011;10764;50.850;2.904;2022-07-29T09:50:43;460.77;;;421.50;;
21213;SDS011;10764;50.850;2.904;2022-07-29T09:53:19;479.90;;;438.75;;
21213;SDS011;10764;50.850;2.904;2022-07-29T09:55:59;445.97;;;407.80;;
21213;SDS011;10764;50.850;2.904;2022-07-29T09:58:27;494.88;;;452.67;;
21213;SDS011;10764;50.850;2.904;2022-07-29T10:00:54;482.67;;;441.45;;
21213;SDS011;10764;50.850;2.904;2022-07-29T10:03:22;462.50;;;422.77;;
21213;SDS011;10764;50.850;2.904;2022-07-29T10:06:06;472.30;;;431.90;;
21213;SDS011;10764;50.850;2.904;2022-07-29T10:08:36;456.80;;;417.70;;
21213;SDS011;10764;50.850;2.904;2022-07-29T10:11:16;469.42;;;429.23;;
21213;SDS011;10764;50.850;2.904;2022-07-29T10:13:47;466.83;;;426.95;;
21213;SDS011;10764;50.850;2.904;2022-07-29T10:16:15;483.85;;;442.55;;
21213;SDS011;10764;50.850;2.904;2022-07-29T10:18:43;484.57;;;443.10;;
21213;SDS011;10764;50.850;2.904;2022-07-29T10:21:12;378.05;;;345.45;;
21213;SDS011;10764;50.850;2.904;2022-07-29T10:23:59;366.35;;;334.83;;
21213;SDS011;10764;50.850;2.904;2022-07-29T10:26:27;471.40;;;431.15;;
21213;SDS011;10764;50.850;2.904;2022-07-29T10:28:56;482.65;;;441.33;;
21213;SDS011;10764;50.850;2.904;2022-07-29T10:31:26;453.58;;;414.60;;
21213;SDS011;10764;50.850;2.904;2022-07-29T10:34:04;438.55;;;400.65;;
21213;SDS011;10764;50.850;2.904;2022-07-29T10:36:56;440.97;;;403.10;;
21213;SDS011;10764;50.850;2.904;2022-07-29T10:42:24;437.83;;;400.30;;
21213;SDS011;10764;50.850;2.904;2022-07-29T10:45:00;438.75;;;400.55;;
21213;SDS011;10764;50.850;2.904;2022-07-29T10:47:29;335.17;;;306.40;;
21213;SDS011;10764;50.850;2.904;2022-07-29T10:50:00;327.05;;;299.02;;
21213;SDS011;10764;50.850;2.904;2022-07-29T10:55:31;426.33;;;389.35;;
21213;SDS011;10764;50.850;2.904;2022-07-29T10:58:21;395.00;;;360.93;;
21213;SDS011;10764;50.850;2.904;2022-07-29T11:00:50;412.83;;;377.20;;
21213;SDS011;10764;50.850;2.904;2022-07-29T11:06:18;387.25;;;353.75;;
21213;SDS011;10764;50.850;2.904;2022-07-29T11:12:03;380.27;;;347.38;;
21213;SDS011;10764;50.850;2.904;2022-07-29T11:14:59;396.30;;;362.20;;
21213;SDS011;10764;50.850;2.904;2022-07-29T11:17:28;420.95;;;384.30;;
21213;SDS011;10764;50.850;2.904;2022-07-29T11:39:36;373.35;;;340.92;;
21213;SDS011;10764;50.850;2.904;2022-07-29T11:44:59;360.63;;;329.63;;
21213;SDS011;10764;50.850;2.904;2022-07-29T11:47:48;389.77;;;356.33;;
21213;SDS011;10764;50.850;2.904;2022-07-29T11:50:36;375.80;;;343.73;;
21213;SDS011;10764;50.850;2.904;2022-07-29T11:53:10;385.27;;;351.98;;
21213;SDS011;10764;50.850;2.904;2022-07-29T11:55:39;375.42;;;343.20;;
21213;SDS011;10764;50.850;2.904;2022-07-29T11:58:27;303.27;;;277.63;;
21213;SDS011;10764;50.850;2.904;2022-07-29T12:00:55;308.77;;;282.53;;
21213;SDS011;10764;50.850;2.904;2022-07-29T12:03:29;382.95;;;349.88;;
21213;SDS011;10764;50.850;2.904;2022-07-29T12:06:02;386.77;;;353.33;;
21213;SDS011;10764;50.850;2.904;2022-07-29T12:08:41;394.23;;;360.02;;
21213;SDS011;10764;50.850;2.904;2022-07-29T12:11:16;405.48;;;370.52;;
21213;SDS011;10764;50.850;2.904;2022-07-29T12:13:46;411.88;;;376.20;;
21213;SDS011;10764;50.850;2.904;2022-07-29T12:16:15;404.45;;;369.58;;
21213;SDS011;10764;50.850;2.904;2022-07-29T12:18:55;399.83;;;365.40;;
21213;SDS011;10764;50.850;2.904;2022-07-29T12:21:28;399.67;;;365.23;;
21213;SDS011;10764;50.850;2.904;2022-07-29T12:24:22;399.08;;;364.42;;
21213;SDS011;10764;50.850;2.904;2022-07-29T12:26:55;406.93;;;371.93;;
21213;SDS011;10764;50.850;2.904;2022-07-29T12:29:23;406.65;;;371.58;;
21213;SDS011;10764;50.850;2.904;2022-07-29T12:32:01;401.95;;;367.55;;
21213;SDS011;10764;50.850;2.904;2022-07-29T12:34:30;410.75;;;375.38;;
21213;SDS011;10764;50.850;2.904;2022-07-29T12:36:58;419.95;;;383.83;;
21213;SDS011;10764;50.850;2.904;2022-07-29T12:39:25;425.60;;;388.87;;
21213;SDS011;10764;50.850;2.904;2022-07-29T12:41:54;408.30;;;373.27;;
21213;SDS011;10764;50.850;2.904;2022-07-29T12:44:45;389.50;;;356.20;;
21213;SDS011;10764;50.850;2.904;2022-07-29T12:47:15;418.92;;;383.15;;
21213;SDS011;10764;50.850;2.904;2022-07-29T12:49:42;413.53;;;377.80;;
21213;SDS011;10764;50.850;2.904;2022-07-29T12:54:57;409.48;;;374.48;;
21213;SDS011;10764;50.850;2.904;2022-07-29T12:57:24;420.27;;;384.33;;
21213;SDS011;10764;50.850;2.904;2022-07-29T13:02:37;336.85;;;308.13;;
21213;SDS011;10764;50.850;2.904;2022-07-29T13:05:05;395.00;;;361.23;;
21213;SDS011;10764;50.850;2.904;2022-07-29T13:07:35;346.27;;;316.52;;
21213;SDS011;10764;50.850;2.904;2022-07-29T13:10:22;352.92;;;322.67;;
21213;SDS011;10764;50.850;2.904;2022-07-29T13:13:10;412.73;;;377.13;;
21213;SDS011;10764;50.850;2.904;2022-07-29T13:15:40;402.05;;;367.60;;
21213;SDS011;10764;50.850;2.904;2022-07-29T13:20:56;427.33;;;390.55;;
21213;SDS011;10764;50.850;2.904;2022-07-29T13:23:36;404.58;;;369.75;;
21213;SDS011;10764;50.850;2.904;2022-07-29T13:26:10;420.45;;;384.48;;
21213;SDS011;10764;50.850;2.904;2022-07-29T13:28:37;432.08;;;395.13;;
21213;SDS011;10764;50.850;2.904;2022-07-29T13:31:04;420.65;;;384.65;;
21213;SDS011;10764;50.850;2.904;2022-07-29T13:33:31;413.60;;;377.92;;
21213;SDS011;10764;50.850;2.904;2022-07-29T13:35:58;384.83;;;352.00;;
21213;SDS011;10764;50.850;2.904;2022-07-29T13:38:25;423.45;;;387.35;;
21213;SDS011;10764;50.850;2.904;2022-07-29T13:40:56;412.85;;;377.65;;
21213;SDS011;10764;50.850;2.904;2022-07-29T13:43:23;396.92;;;362.90;;
21213;SDS011;10764;50.850;2.904;2022-07-29T13:45:50;434.63;;;397.45;;
21213;SDS011;10764;50.850;2.904;2022-07-29T13:48:18;423.50;;;387.40;;
21213;SDS011;10764;50.850;2.904;2022-07-29T13:50:45;407.38;;;372.38;;
21213;SDS011;10764;50.850;2.904;2022-07-29T13:53:12;398.08;;;364.02;;
21213;SDS011;10764;50.850;2.904;2022-07-29T13:55:43;365.52;;;334.23;;
21213;SDS011;10764;50.850;2.904;2022-07-29T13:58:10;399.80;;;365.60;;
21213;SDS011;10764;50.850;2.904;2022-07-29T14:00:37;389.13;;;355.77;;
21213;SDS011;10764;50.850;2.904;2022-07-29T14:03:04;359.20;;;328.52;;
21213;SDS011;10764;50.850;2.904;2022-07-29T14:05:32;359.35;;;328.33;;
21213;SDS011;10764;50.850;2.904;2022-07-29T14:07:59;313.33;;;286.33;;
21213;SDS011;10764;50.850;2.904;2022-07-29T14:10:26;332.77;;;304.30;;
21213;SDS011;10764;50.850;2.904;2022-07-29T14:12:53;357.92;;;326.92;;
21213;SDS011;10764;50.850;2.904;2022-07-29T14:15:20;344.80;;;314.92;;
21213;SDS011;10764;50.850;2.904;2022-07-29T14:17:47;357.60;;;326.57;;
21213;SDS011;10764;50.850;2.904;2022-07-29T14:20:14;373.75;;;341.70;;
21213;SDS011;10764;50.850;2.904;2022-07-29T14:22:42;379.15;;;346.38;;
21213;SDS011;10764;50.850;2.904;2022-07-29T14:25:10;384.05;;;350.90;;
21213;SDS011;10764;50.850;2.904;2022-07-29T14:27:41;386.77;;;353.35;;
21213;SDS011;10764;50.850;2.904;2022-07-29T14:30:09;374.92;;;342.67;;
21213;SDS011;10764;50.850;2.904;2022-07-29T14:32:36;310.37;;;283.93;;
21213;SDS011;10764;50.850;2.904;2022-07-29T14:35:03;388.92;;;355.27;;
21213;SDS011;10764;50.850;2.904;2022-07-29T14:37:31;394.65;;;360.35;;
21213;SDS011;10764;50.850;2.904;2022-07-29T14:40:05;365.70;;;334.15;;
21213;SDS011;10764;50.850;2.904;2022-07-29T14:42:33;365.93;;;334.53;;
21213;SDS011;10764;50.850;2.904;2022-07-29T14:45:00;379.17;;;346.77;;
21213;SDS011;10764;50.850;2.904;2022-07-29T14:47:27;357.73;;;326.88;;
21213;SDS011;10764;50.850;2.904;2022-07-29T14:49:54;306.30;;;280.38;;
21213;SDS011;10764;50.850;2.904;2022-07-29T14:52:20;305.77;;;279.57;;
21213;SDS011;10764;50.850;2.904;2022-07-29T14:54:47;354.27;;;323.85;;
21213;SDS011;10764;50.850;2.904;2022-07-29T14:57:15;350.08;;;320.05;;
21213;SDS011;10764;50.850;2.904;2022-07-29T14:59:42;355.98;;;325.40;;
21213;SDS011;10764;50.850;2.904;2022-07-29T15:02:09;342.13;;;312.67;;
21213;SDS011;10764;50.850;2.904;2022-07-29T15:04:36;345.33;;;315.77;;
21213;SDS011;10764;50.850;2.904;2022-07-29T15:07:03;355.10;;;324.57;;
21213;SDS011;10764;50.850;2.904;2022-07-29T15:09:30;362.55;;;331.40;;
21213;SDS011;10764;50.850;2.904;2022-07-29T15:12:01;317.92;;;290.88;;